sensor_id;sensor_type;location;lat;lon;timestamp;P1;durP1;ratioP1;P2;durP2;ratioP2
44973;SDS011;60981;50.720;11.342;2023-01-01T00:00:34;10.00;;;6.28;;
44973;SDS011;60981;50.720;11.342;2023-01-01T00:01:39;7.78;;;4.97;;
44973;SDS011;60981;50.720;11.342;2023-01-01T00:02:44;7.13;;;3.65;;
44973;SDS011;60981;50.720;11.342;2023-01-01T00:03:52;7.43;;;4.50;;
44973;SDS011;60981;50.720;11.342;2023-01-01T00:05:00;5.72;;;2.90;;
44973;SDS011;60981;50.720;11.342;2023-01-01T00:06:09;6.72;;;3.13;;
44973;SDS011;60981;50.720;11.342;2023-01-01T00:07:13;6.40;;;3.80;;
44973;SDS011;60981;50.720;11.342;2023-01-01T00:08:15;10.60;;;5.60;;
44973;SDS011;60981;50.720;11.342;2023-01-01T00:09:17;11.52;;;6.43;;
44973;SDS011;60981;50.720;11.342;2023-01-01T00:10:38;5.33;;;2.57;;
44973;SDS011;60981;50.720;11.342;2023-01-01T00:11:41;6.85;;;2.22;;
44973;SDS011;60981;50.720;11.342;2023-01-01T00:12:46;4.15;;;1.80;;
44973;SDS011;60981;50.720;11.342;2023-01-01T00:13:52;5.10;;;2.10;;
44973;SDS011;60981;50.720;11.342;2023-01-01T00:14:54;4.38;;;2.00;;
44973;SDS011;60981;50.720;11.342;2023-01-01T00:16:06;4.40;;;1.80;;
44973;SDS011;60981;50.720;11.342;2023-01-01T00:17:11;5.30;;;1.90;;
44973;SDS011;60981;50.720;11.342;2023-01-01T00:18:14;4.50;;;2.20;;
44973;SDS011;60981;50.720;11.342;2023-01-01T00:19:16;4.38;;;1.60;;
44973;SDS011;60981;50.720;11.342;2023-01-01T00:20:22;3.50;;;1.40;;
44973;SDS011;60981;50.720;11.342;2023-01-01T00:21:24;5.50;;;1.90;;
44973;SDS011;60981;50.720;11.342;2023-01-01T00:22:27;3.97;;;1.70;;
44973;SDS011;60981;50.720;11.342;2023-01-01T00:23:49;6.63;;;2.28;;
44973;SDS011;60981;50.720;11.342;2023-01-01T00:24:52;5.78;;;2.25;;
44973;SDS011;60981;50.720;11.342;2023-01-01T00:25:54;5.18;;;1.90;;
44973;SDS011;60981;50.720;11.342;2023-01-01T00:26:57;5.18;;;2.22;;
44973;SDS011;60981;50.720;11.342;2023-01-01T00:28:01;4.93;;;2.20;;
44973;SDS011;60981;50.720;11.342;2023-01-01T00:29:04;4.15;;;1.70;;
44973;SDS011;60981;50.720;11.342;2023-01-01T00:30:07;4.78;;;2.40;;
44973;SDS011;60981;50.720;11.342;2023-01-01T00:31:12;5.30;;;2.40;;
44973;SDS011;60981;50.720;11.342;2023-01-01T00:32:18;4.28;;;2.08;;
44973;SDS011;60981;50.720;11.342;2023-01-01T00:33:24;4.85;;;2.60;;
44973;SDS011;60981;50.720;11.342;2023-01-01T00:34:27;5.50;;;2.40;;
44973;SDS011;60981;50.720;11.342;2023-01-01T00:35:32;5.25;;;2.28;;
44973;SDS011;60981;50.720;11.342;2023-01-01T00:36:35;4.45;;;2.20;;
44973;SDS011;60981;50.720;11.342;2023-01-01T00:37:38;4.60;;;2.20;;
44973;SDS011;60981;50.720;11.342;2023-01-01T00:38:48;5.68;;;2.10;;
44973;SDS011;60981;50.720;11.342;2023-01-01T00:39:50;4.18;;;2.00;;
44973;SDS011;60981;50.720;11.342;2023-01-01T00:40:52;5.25;;;2.55;;
44973;SDS011;60981;50.720;11.342;2023-01-01T00:41:54;6.63;;;3.40;;
44973;SDS011;60981;50.720;11.342;2023-01-01T00:42:56;9.30;;;4.13;;
44973;SDS011;60981;50.720;11.342;2023-01-01T00:43:57;5.43;;;1.85;;
44973;SDS011;60981;50.720;11.342;2023-01-01T00:45:06;5.30;;;2.35;;
44973;SDS011;60981;50.720;11.342;2023-01-01T00:46:09;4.80;;;2.40;;
44973;SDS011;60981;50.720;11.342;2023-01-01T00:47:11;5.32;;;2.28;;
44973;SDS011;60981;50.720;11.342;2023-01-01T00:48:14;4.93;;;2.50;;
44973;SDS011;60981;50.720;11.342;2023-01-01T00:49:18;5.68;;;2.60;;
44973;SDS011;60981;50.720;11.342;2023-01-01T00:50:20;5.25;;;2.95;;
44973;SDS011;60981;50.720;11.342;2023-01-01T00:51:26;6.88;;;3.58;;
44973;SDS011;60981;50.720;11.342;2023-01-01T00:52:35;5.90;;;2.50;;
44973;SDS011;60981;50.720;11.342;2023-01-01T00:53:37;6.93;;;2.92;;
44973;SDS011;60981;50.720;11.342;2023-01-01T00:54:39;6.45;;;3.15;;
44973;SDS011;60981;50.720;11.342;2023-01-01T00:55:41;5.82;;;2.03;;
44973;SDS011;60981;50.720;11.342;2023-01-01T00:56:45;5.50;;;2.22;;
44973;SDS011;60981;50.720;11.342;2023-01-01T00:57:50;4.28;;;1.95;;
44973;SDS011;60981;50.720;11.342;2023-01-01T00:58:53;5.22;;;1.83;;
44973;SDS011;60981;50.720;11.342;2023-01-01T01:00:02;4.82;;;1.70;;
44973;SDS011;60981;50.720;11.342;2023-01-01T01:01:05;4.13;;;1.95;;
44973;SDS011;60981;50.720;11.342;2023-01-01T01:02:08;3.38;;;1.73;;
44973;SDS011;60981;50.720;11.342;2023-01-01T01:03:11;3.92;;;2.00;;
44973;SDS011;60981;50.720;11.342;2023-01-01T01:04:30;6.35;;;2.38;;
44973;SDS011;60981;50.720;11.342;2023-01-01T01:05:32;4.90;;;1.95;;
44973;SDS011;60981;50.720;11.342;2023-01-01T01:06:37;43.83;;;23.67;;
44973;SDS011;60981;50.720;11.342;2023-01-01T01:07:40;9.07;;;3.78;;
44973;SDS011;60981;50.720;11.342;2023-01-01T01:08:45;6.95;;;2.78;;
44973;SDS011;60981;50.720;11.342;2023-01-01T01:09:51;7.47;;;2.13;;
44973;SDS011;60981;50.720;11.342;2023-01-01T01:10:53;4.18;;;1.48;;
44973;SDS011;60981;50.720;11.342;2023-01-01T01:11:56;3.40;;;1.30;;
44973;SDS011;60981;50.720;11.342;2023-01-01T01:13:18;4.50;;;1.70;;
44973;SDS011;60981;50.720;11.342;2023-01-01T01:14:20;5.57;;;2.13;;
44973;SDS011;60981;50.720;11.342;2023-01-01T01:15:25;4.80;;;1.60;;
44973;SDS011;60981;50.720;11.342;2023-01-01T01:16:32;4.90;;;1.45;;
44973;SDS011;60981;50.720;11.342;2023-01-01T01:17:35;6.30;;;1.80;;
44973;SDS011;60981;50.720;11.342;2023-01-01T01:18:38;4.57;;;1.80;;
44973;SDS011;60981;50.720;11.342;2023-01-01T01:19:40;6.10;;;1.80;;
44973;SDS011;60981;50.720;11.342;2023-01-01T01:20:50;3.90;;;1.38;;
44973;SDS011;60981;50.720;11.342;2023-01-01T01:21:54;5.72;;;1.90;;
44973;SDS011;60981;50.720;11.342;2023-01-01T01:22:56;4.32;;;2.00;;
44973;SDS011;60981;50.720;11.342;2023-01-01T01:23:59;5.93;;;1.80;;
44973;SDS011;60981;50.720;11.342;2023-01-01T01:25:04;3.78;;;1.48;;
44973;SDS011;60981;50.720;11.342;2023-01-01T01:26:09;4.10;;;2.13;;
44973;SDS011;60981;50.720;11.342;2023-01-01T01:27:18;5.40;;;1.42;;
44973;SDS011;60981;50.720;11.342;2023-01-01T01:28:21;4.20;;;1.88;;
44973;SDS011;60981;50.720;11.342;2023-01-01T01:29:25;3.55;;;1.25;;
44973;SDS011;60981;50.720;11.342;2023-01-01T01:30:30;5.45;;;1.33;;
44973;SDS011;60981;50.720;11.342;2023-01-01T01:31:33;4.07;;;1.60;;
44973;SDS011;60981;50.720;11.342;2023-01-01T01:32:36;3.78;;;1.33;;
44973;SDS011;60981;50.720;11.342;2023-01-01T01:33:38;3.88;;;1.40;;
44973;SDS011;60981;50.720;11.342;2023-01-01T01:34:41;5.65;;;1.40;;
44973;SDS011;60981;50.720;11.342;2023-01-01T01:35:49;4.40;;;1.48;;
44973;SDS011;60981;50.720;11.342;2023-01-01T01:36:52;4.20;;;1.48;;
44973;SDS011;60981;50.720;11.342;2023-01-01T01:37:55;5.18;;;1.60;;
44973;SDS011;60981;50.720;11.342;2023-01-01T01:38:57;6.68;;;1.42;;
44973;SDS011;60981;50.720;11.342;2023-01-01T01:40:01;4.22;;;1.60;;
44973;SDS011;60981;50.720;11.342;2023-01-01T01:41:04;4.18;;;1.15;;
44973;SDS011;60981;50.720;11.342;2023-01-01T01:42:10;4.28;;;1.10;;
44973;SDS011;60981;50.720;11.342;2023-01-01T01:44:51;5.03;;;1.60;;
44973;SDS011;60981;50.720;11.342;2023-01-01T01:45:58;3.85;;;1.55;;
44973;SDS011;60981;50.720;11.342;2023-01-01T01:48:51;3.50;;;1.20;;
44973;SDS011;60981;50.720;11.342;2023-01-01T01:50:02;3.78;;;1.50;;
44973;SDS011;60981;50.720;11.342;2023-01-01T01:51:09;3.30;;;1.30;;
44973;SDS011;60981;50.720;11.342;2023-01-01T01:52:16;7.22;;;2.22;;
44973;SDS011;60981;50.720;11.342;2023-01-01T01:53:26;4.80;;;1.20;;
44973;SDS011;60981;50.720;11.342;2023-01-01T01:54:33;4.47;;;1.20;;
44973;SDS011;60981;50.720;11.342;2023-01-01T01:55:37;3.95;;;1.05;;
44973;SDS011;60981;50.720;11.342;2023-01-01T01:57:01;6.75;;;1.67;;
44973;SDS011;60981;50.720;11.342;2023-01-01T01:58:09;3.28;;;1.10;;
44973;SDS011;60981;50.720;11.342;2023-01-01T01:59:16;6.30;;;1.10;;
44973;SDS011;60981;50.720;11.342;2023-01-01T02:00:21;2.50;;;1.00;;
44973;SDS011;60981;50.720;11.342;2023-01-01T02:01:24;4.25;;;1.30;;
44973;SDS011;60981;50.720;11.342;2023-01-01T02:03:58;4.82;;;1.38;;
44973;SDS011;60981;50.720;11.342;2023-01-01T02:05:05;6.15;;;1.55;;
44973;SDS011;60981;50.720;11.342;2023-01-01T02:06:09;4.57;;;1.40;;
44973;SDS011;60981;50.720;11.342;2023-01-01T02:07:13;5.30;;;1.45;;
44973;SDS011;60981;50.720;11.342;2023-01-01T02:08:16;5.47;;;1.65;;
44973;SDS011;60981;50.720;11.342;2023-01-01T02:09:23;13.05;;;3.17;;
44973;SDS011;60981;50.720;11.342;2023-01-01T02:10:27;15.88;;;6.13;;
44973;SDS011;60981;50.720;11.342;2023-01-01T02:11:31;10.85;;;2.97;;
44973;SDS011;60981;50.720;11.342;2023-01-01T02:12:35;5.05;;;1.70;;
44973;SDS011;60981;50.720;11.342;2023-01-01T02:13:38;4.45;;;1.55;;
44973;SDS011;60981;50.720;11.342;2023-01-01T02:14:44;4.97;;;2.00;;
44973;SDS011;60981;50.720;11.342;2023-01-01T02:17:20;5.85;;;2.25;;
44973;SDS011;60981;50.720;11.342;2023-01-01T02:18:42;7.10;;;2.97;;
44973;SDS011;60981;50.720;11.342;2023-01-01T02:21:29;4.30;;;1.48;;
44973;SDS011;60981;50.720;11.342;2023-01-01T02:24:10;5.55;;;1.90;;
44973;SDS011;60981;50.720;11.342;2023-01-01T02:25:42;6.75;;;2.50;;
44973;SDS011;60981;50.720;11.342;2023-01-01T02:37:52;27.00;;;18.38;;
44973;SDS011;60981;50.720;11.342;2023-01-01T02:40:09;34.45;;;21.08;;
44973;SDS011;60981;50.720;11.342;2023-01-01T02:46:40;7.10;;;3.53;;
44973;SDS011;60981;50.720;11.342;2023-01-01T02:47:42;6.28;;;3.05;;
44973;SDS011;60981;50.720;11.342;2023-01-01T02:48:47;6.15;;;3.20;;
44973;SDS011;60981;50.720;11.342;2023-01-01T02:50:04;6.70;;;2.03;;
44973;SDS011;60981;50.720;11.342;2023-01-01T02:52:35;5.00;;;2.30;;
44973;SDS011;60981;50.720;11.342;2023-01-01T02:54:00;5.38;;;2.25;;
44973;SDS011;60981;50.720;11.342;2023-01-01T02:55:26;5.10;;;1.98;;
44973;SDS011;60981;50.720;11.342;2023-01-01T10:12:41;6.38;;;2.08;;
44973;SDS011;60981;50.720;11.342;2023-01-01T10:13:54;4.95;;;2.20;;
44973;SDS011;60981;50.720;11.342;2023-01-01T10:15:17;5.68;;;2.10;;
44973;SDS011;60981;50.720;11.342;2023-01-01T10:16:41;4.38;;;2.28;;
44973;SDS011;60981;50.720;11.342;2023-01-01T10:17:53;8.38;;;3.30;;
44973;SDS011;60981;50.720;11.342;2023-01-01T10:20:35;8.13;;;2.40;;
44973;SDS011;60981;50.720;11.342;2023-01-01T10:21:41;7.25;;;2.03;;
44973;SDS011;60981;50.720;11.342;2023-01-01T10:22:51;6.80;;;2.30;;
44973;SDS011;60981;50.720;11.342;2023-01-01T10:23:57;7.57;;;1.95;;
44973;SDS011;60981;50.720;11.342;2023-01-01T10:25:20;6.88;;;2.00;;
44973;SDS011;60981;50.720;11.342;2023-01-01T10:26:26;7.85;;;2.22;;
44973;SDS011;60981;50.720;11.342;2023-01-01T10:27:38;6.22;;;2.25;;
44973;SDS011;60981;50.720;11.342;2023-01-01T10:29:01;6.68;;;2.08;;
44973;SDS011;60981;50.720;11.342;2023-01-01T10:30:18;6.45;;;2.08;;
44973;SDS011;60981;50.720;11.342;2023-01-01T10:49:32;7.50;;;2.20;;
44973;SDS011;60981;50.720;11.342;2023-01-01T10:50:41;7.45;;;2.83;;
44973;SDS011;60981;50.720;11.342;2023-01-01T10:51:51;18.60;;;6.90;;
44973;SDS011;60981;50.720;11.342;2023-01-01T10:52:56;8.18;;;2.40;;
44973;SDS011;60981;50.720;11.342;2023-01-01T10:54:03;5.95;;;2.35;;
44973;SDS011;60981;50.720;11.342;2023-01-01T10:55:20;7.20;;;2.38;;
44973;SDS011;60981;50.720;11.342;2023-01-01T10:56:39;7.28;;;2.38;;
44973;SDS011;60981;50.720;11.342;2023-01-01T10:57:41;7.95;;;2.38;;
44973;SDS011;60981;50.720;11.342;2023-01-01T10:58:52;7.78;;;2.35;;
44973;SDS011;60981;50.720;11.342;2023-01-01T11:02:25;6.45;;;2.40;;
44973;SDS011;60981;50.720;11.342;2023-01-01T11:03:28;6.65;;;2.30;;
44973;SDS011;60981;50.720;11.342;2023-01-01T11:04:30;7.03;;;2.08;;
44973;SDS011;60981;50.720;11.342;2023-01-01T12:41:58;8.13;;;2.15;;
44973;SDS011;60981;50.720;11.342;2023-01-01T12:49:57;7.72;;;2.00;;
44973;SDS011;60981;50.720;11.342;2023-01-01T12:52:57;6.28;;;1.60;;
44973;SDS011;60981;50.720;11.342;2023-01-01T12:55:22;7.72;;;2.33;;
44973;SDS011;60981;50.720;11.342;2023-01-01T12:56:39;7.45;;;1.90;;
44973;SDS011;60981;50.720;11.342;2023-01-01T12:59:33;8.10;;;1.70;;
44973;SDS011;60981;50.720;11.342;2023-01-01T13:00:42;5.65;;;1.42;;
44973;SDS011;60981;50.720;11.342;2023-01-01T13:01:55;4.72;;;1.42;;
44973;SDS011;60981;50.720;11.342;2023-01-01T13:04:37;7.30;;;1.95;;
44973;SDS011;60981;50.720;11.342;2023-01-01T13:05:43;8.68;;;1.70;;
44973;SDS011;60981;50.720;11.342;2023-01-01T13:06:53;6.15;;;1.55;;
44973;SDS011;60981;50.720;11.342;2023-01-01T13:08:05;9.32;;;1.75;;
44973;SDS011;60981;50.720;11.342;2023-01-01T13:09:13;6.75;;;1.75;;
44973;SDS011;60981;50.720;11.342;2023-01-01T13:10:44;10.43;;;2.60;;
44973;SDS011;60981;50.720;11.342;2023-01-01T13:12:00;7.60;;;1.77;;
44973;SDS011;60981;50.720;11.342;2023-01-01T13:13:15;5.95;;;2.13;;
44973;SDS011;60981;50.720;11.342;2023-01-01T13:14:20;3.85;;;1.70;;
44973;SDS011;60981;50.720;11.342;2023-01-01T13:16:46;5.28;;;1.60;;
44973;SDS011;60981;50.720;11.342;2023-01-01T13:17:57;6.25;;;1.65;;
44973;SDS011;60981;50.720;11.342;2023-01-01T13:18:59;5.65;;;1.80;;
44973;SDS011;60981;50.720;11.342;2023-01-01T13:21:25;7.63;;;2.05;;
44973;SDS011;60981;50.720;11.342;2023-01-01T13:24:39;10.52;;;1.50;;
44973;SDS011;60981;50.720;11.342;2023-01-01T13:25:43;5.50;;;1.67;;
44973;SDS011;60981;50.720;11.342;2023-01-01T13:26:47;9.93;;;2.00;;
44973;SDS011;60981;50.720;11.342;2023-01-01T13:29:58;5.13;;;2.00;;
44973;SDS011;60981;50.720;11.342;2023-01-01T13:31:03;8.07;;;2.20;;
44973;SDS011;60981;50.720;11.342;2023-01-01T13:32:07;4.95;;;1.50;;
44973;SDS011;60981;50.720;11.342;2023-01-01T13:37:26;7.03;;;1.83;;
44973;SDS011;60981;50.720;11.342;2023-01-01T13:40:03;6.00;;;2.03;;
44973;SDS011;60981;50.720;11.342;2023-01-01T13:41:44;5.70;;;1.80;;
44973;SDS011;60981;50.720;11.342;2023-01-01T13:47:19;5.80;;;1.60;;
44973;SDS011;60981;50.720;11.342;2023-01-01T13:50:19;6.25;;;1.75;;
44973;SDS011;60981;50.720;11.342;2023-01-01T13:57:31;7.78;;;1.80;;
44973;SDS011;60981;50.720;11.342;2023-01-01T14:00:23;7.57;;;1.98;;
44973;SDS011;60981;50.720;11.342;2023-01-01T14:03:15;8.65;;;1.90;;
44973;SDS011;60981;50.720;11.342;2023-01-01T14:04:26;5.30;;;1.40;;
44973;SDS011;60981;50.720;11.342;2023-01-01T14:05:41;8.68;;;1.88;;
44973;SDS011;60981;50.720;11.342;2023-01-01T14:06:49;8.32;;;1.92;;
44973;SDS011;60981;50.720;11.342;2023-01-01T14:07:55;5.57;;;2.03;;
44973;SDS011;60981;50.720;11.342;2023-01-01T14:09:14;6.15;;;1.60;;
44973;SDS011;60981;50.720;11.342;2023-01-01T14:10:31;7.13;;;1.83;;
44973;SDS011;60981;50.720;11.342;2023-01-01T14:11:36;10.27;;;2.40;;
44973;SDS011;60981;50.720;11.342;2023-01-01T14:12:41;8.18;;;1.70;;
44973;SDS011;60981;50.720;11.342;2023-01-01T14:13:45;15.63;;;4.10;;
44973;SDS011;60981;50.720;11.342;2023-01-01T14:14:50;9.93;;;2.47;;
44973;SDS011;60981;50.720;11.342;2023-01-01T14:15:56;11.30;;;2.80;;
44973;SDS011;60981;50.720;11.342;2023-01-01T14:17:01;8.43;;;1.90;;
44973;SDS011;60981;50.720;11.342;2023-01-01T14:18:11;8.05;;;2.08;;
44973;SDS011;60981;50.720;11.342;2023-01-01T14:19:17;8.75;;;2.35;;
44973;SDS011;60981;50.720;11.342;2023-01-01T14:20:21;6.13;;;1.33;;
44973;SDS011;60981;50.720;11.342;2023-01-01T14:21:31;9.75;;;2.00;;
44973;SDS011;60981;50.720;11.342;2023-01-01T14:22:36;10.27;;;2.05;;
44973;SDS011;60981;50.720;11.342;2023-01-01T14:23:43;5.75;;;1.88;;
44973;SDS011;60981;50.720;11.342;2023-01-01T14:24:48;7.13;;;2.22;;
44973;SDS011;60981;50.720;11.342;2023-01-01T14:25:50;7.18;;;1.55;;
44973;SDS011;60981;50.720;11.342;2023-01-01T14:26:52;10.05;;;2.33;;
44973;SDS011;60981;50.720;11.342;2023-01-01T14:27:56;9.57;;;1.85;;
44973;SDS011;60981;50.720;11.342;2023-01-01T14:29:01;7.72;;;1.58;;
44973;SDS011;60981;50.720;11.342;2023-01-01T14:30:13;7.00;;;1.65;;
44973;SDS011;60981;50.720;11.342;2023-01-01T14:31:22;6.90;;;2.03;;
44973;SDS011;60981;50.720;11.342;2023-01-01T14:32:28;9.32;;;2.15;;
44973;SDS011;60981;50.720;11.342;2023-01-01T14:33:35;5.55;;;1.80;;
44973;SDS011;60981;50.720;11.342;2023-01-01T14:34:39;5.18;;;1.98;;
44973;SDS011;60981;50.720;11.342;2023-01-01T14:35:49;6.97;;;1.40;;
44973;SDS011;60981;50.720;11.342;2023-01-01T14:36:54;7.65;;;1.42;;
44973;SDS011;60981;50.720;11.342;2023-01-01T14:38:14;8.93;;;2.03;;
44973;SDS011;60981;50.720;11.342;2023-01-01T14:39:28;6.72;;;1.73;;
44973;SDS011;60981;50.720;11.342;2023-01-01T14:40:32;8.75;;;1.95;;
44973;SDS011;60981;50.720;11.342;2023-01-01T14:41:39;7.00;;;1.88;;
44973;SDS011;60981;50.720;11.342;2023-01-01T14:42:41;7.78;;;1.98;;
44973;SDS011;60981;50.720;11.342;2023-01-01T14:43:47;5.85;;;1.77;;
44973;SDS011;60981;50.720;11.342;2023-01-01T14:44:52;6.00;;;1.70;;
44973;SDS011;60981;50.720;11.342;2023-01-01T14:45:54;6.82;;;2.03;;
44973;SDS011;60981;50.720;11.342;2023-01-01T14:46:57;8.48;;;2.00;;
44973;SDS011;60981;50.720;11.342;2023-01-01T14:47:59;7.20;;;2.00;;
44973;SDS011;60981;50.720;11.342;2023-01-01T14:49:06;7.97;;;2.10;;
44973;SDS011;60981;50.720;11.342;2023-01-01T14:50:12;7.57;;;3.03;;
44973;SDS011;60981;50.720;11.342;2023-01-01T14:51:31;9.05;;;2.13;;
44973;SDS011;60981;50.720;11.342;2023-01-01T14:52:39;7.95;;;2.50;;
44973;SDS011;60981;50.720;11.342;2023-01-01T14:53:42;8.63;;;2.97;;
44973;SDS011;60981;50.720;11.342;2023-01-01T14:54:50;5.72;;;2.33;;
44973;SDS011;60981;50.720;11.342;2023-01-01T14:55:54;9.15;;;2.55;;
44973;SDS011;60981;50.720;11.342;2023-01-01T14:56:56;6.65;;;2.17;;
44973;SDS011;60981;50.720;11.342;2023-01-01T14:58:00;6.13;;;1.92;;
44973;SDS011;60981;50.720;11.342;2023-01-01T15:00:30;7.40;;;1.80;;
44973;SDS011;60981;50.720;11.342;2023-01-01T15:01:35;8.50;;;2.00;;
44973;SDS011;60981;50.720;11.342;2023-01-01T15:02:38;11.02;;;2.25;;
44973;SDS011;60981;50.720;11.342;2023-01-01T15:03:45;7.43;;;2.22;;
44973;SDS011;60981;50.720;11.342;2023-01-01T15:05:14;7.45;;;2.03;;
44973;SDS011;60981;50.720;11.342;2023-01-01T15:06:41;8.15;;;2.03;;
44973;SDS011;60981;50.720;11.342;2023-01-01T15:07:54;5.03;;;2.00;;
44973;SDS011;60981;50.720;11.342;2023-01-01T15:08:59;7.05;;;1.48;;
44973;SDS011;60981;50.720;11.342;2023-01-01T15:10:02;7.30;;;1.92;;
44973;SDS011;60981;50.720;11.342;2023-01-01T15:11:04;8.43;;;1.95;;
44973;SDS011;60981;50.720;11.342;2023-01-01T15:12:09;8.10;;;2.63;;
44973;SDS011;60981;50.720;11.342;2023-01-01T15:13:18;8.23;;;1.60;;
44973;SDS011;60981;50.720;11.342;2023-01-01T15:16:58;7.53;;;2.17;;
44973;SDS011;60981;50.720;11.342;2023-01-01T15:18:05;6.47;;;2.03;;
44973;SDS011;60981;50.720;11.342;2023-01-01T15:19:16;10.07;;;2.45;;
44973;SDS011;60981;50.720;11.342;2023-01-01T15:20:19;12.43;;;4.40;;
44973;SDS011;60981;50.720;11.342;2023-01-01T15:22:45;10.07;;;2.65;;
44973;SDS011;60981;50.720;11.342;2023-01-01T15:23:56;9.32;;;3.17;;
44973;SDS011;60981;50.720;11.342;2023-01-01T15:25:05;10.93;;;2.25;;
44973;SDS011;60981;50.720;11.342;2023-01-01T15:26:22;7.82;;;1.90;;
44973;SDS011;60981;50.720;11.342;2023-01-01T15:27:31;6.13;;;2.10;;
44973;SDS011;60981;50.720;11.342;2023-01-01T15:28:40;7.00;;;1.98;;
44973;SDS011;60981;50.720;11.342;2023-01-01T15:29:44;7.30;;;1.83;;
44973;SDS011;60981;50.720;11.342;2023-01-01T15:30:53;7.22;;;1.73;;
44973;SDS011;60981;50.720;11.342;2023-01-01T15:32:02;7.47;;;2.13;;
44973;SDS011;60981;50.720;11.342;2023-01-01T15:33:14;7.63;;;2.65;;
44973;SDS011;60981;50.720;11.342;2023-01-01T15:34:24;8.65;;;1.70;;
44973;SDS011;60981;50.720;11.342;2023-01-01T15:35:32;7.88;;;1.67;;
44973;SDS011;60981;50.720;11.342;2023-01-01T15:36:38;8.85;;;2.20;;
44973;SDS011;60981;50.720;11.342;2023-01-01T15:37:44;6.28;;;2.00;;
44973;SDS011;60981;50.720;11.342;2023-01-01T15:38:50;7.20;;;2.17;;
44973;SDS011;60981;50.720;11.342;2023-01-01T15:39:58;6.78;;;2.10;;
44973;SDS011;60981;50.720;11.342;2023-01-01T15:41:21;8.88;;;2.10;;
44973;SDS011;60981;50.720;11.342;2023-01-01T15:48:24;10.00;;;2.65;;
44973;SDS011;60981;50.720;11.342;2023-01-01T15:49:32;10.45;;;3.30;;
44973;SDS011;60981;50.720;11.342;2023-01-01T16:08:45;10.25;;;3.10;;
44973;SDS011;60981;50.720;11.342;2023-01-01T16:09:49;11.00;;;3.63;;
44973;SDS011;60981;50.720;11.342;2023-01-01T16:10:58;13.65;;;4.82;;
44973;SDS011;60981;50.720;11.342;2023-01-01T16:12:03;13.27;;;4.65;;
44973;SDS011;60981;50.720;11.342;2023-01-01T16:13:06;12.05;;;4.32;;
44973;SDS011;60981;50.720;11.342;2023-01-01T16:14:08;11.70;;;4.35;;
44973;SDS011;60981;50.720;11.342;2023-01-01T16:15:13;13.05;;;4.07;;
44973;SDS011;60981;50.720;11.342;2023-01-01T16:16:27;12.52;;;4.30;;
44973;SDS011;60981;50.720;11.342;2023-01-01T16:17:30;10.15;;;4.05;;
44973;SDS011;60981;50.720;11.342;2023-01-01T16:18:38;11.65;;;4.35;;
44973;SDS011;60981;50.720;11.342;2023-01-01T16:19:40;10.45;;;3.90;;
44973;SDS011;60981;50.720;11.342;2023-01-01T16:20:42;9.70;;;3.78;;
44973;SDS011;60981;50.720;11.342;2023-01-01T16:21:45;15.40;;;7.15;;
44973;SDS011;60981;50.720;11.342;2023-01-01T16:22:54;10.30;;;4.00;;
44973;SDS011;60981;50.720;11.342;2023-01-01T16:23:55;11.60;;;4.75;;
44973;SDS011;60981;50.720;11.342;2023-01-01T16:24:57;11.60;;;3.30;;
44973;SDS011;60981;50.720;11.342;2023-01-01T16:26:02;8.95;;;3.10;;
44973;SDS011;60981;50.720;11.342;2023-01-01T16:27:05;10.18;;;3.75;;
44973;SDS011;60981;50.720;11.342;2023-01-01T16:28:07;10.23;;;4.70;;
44973;SDS011;60981;50.720;11.342;2023-01-01T16:29:10;15.85;;;6.15;;
44973;SDS011;60981;50.720;11.342;2023-01-01T16:30:13;13.48;;;5.30;;
44973;SDS011;60981;50.720;11.342;2023-01-01T16:31:25;13.90;;;5.40;;
44973;SDS011;60981;50.720;11.342;2023-01-01T16:32:29;12.98;;;4.82;;
44973;SDS011;60981;50.720;11.342;2023-01-01T16:33:32;15.63;;;5.28;;
44973;SDS011;60981;50.720;11.342;2023-01-01T16:34:34;13.20;;;4.75;;
44973;SDS011;60981;50.720;11.342;2023-01-01T16:35:37;11.90;;;4.80;;
44973;SDS011;60981;50.720;11.342;2023-01-01T16:36:40;21.23;;;6.13;;
44973;SDS011;60981;50.720;11.342;2023-01-01T16:37:42;16.52;;;6.43;;
44973;SDS011;60981;50.720;11.342;2023-01-01T16:38:44;15.13;;;5.80;;
44973;SDS011;60981;50.720;11.342;2023-01-01T16:39:49;13.57;;;5.28;;
44973;SDS011;60981;50.720;11.342;2023-01-01T16:40:51;14.90;;;6.13;;
44973;SDS011;60981;50.720;11.342;2023-01-01T16:41:54;19.25;;;7.45;;
44973;SDS011;60981;50.720;11.342;2023-01-01T16:42:57;15.05;;;6.40;;
44973;SDS011;60981;50.720;11.342;2023-01-01T16:44:02;14.32;;;6.13;;
44973;SDS011;60981;50.720;11.342;2023-01-01T16:45:06;15.90;;;5.82;;
44973;SDS011;60981;50.720;11.342;2023-01-01T16:46:09;18.42;;;6.95;;
44973;SDS011;60981;50.720;11.342;2023-01-01T16:47:14;17.80;;;7.13;;
44973;SDS011;60981;50.720;11.342;2023-01-01T16:48:18;16.55;;;6.53;;
44973;SDS011;60981;50.720;11.342;2023-01-01T16:49:22;17.87;;;7.40;;
44973;SDS011;60981;50.720;11.342;2023-01-01T16:50:26;16.73;;;7.35;;
44973;SDS011;60981;50.720;11.342;2023-01-01T16:51:29;17.25;;;7.00;;
44973;SDS011;60981;50.720;11.342;2023-01-01T16:52:33;18.08;;;7.53;;
44973;SDS011;60981;50.720;11.342;2023-01-01T16:53:41;13.70;;;6.53;;
44973;SDS011;60981;50.720;11.342;2023-01-01T16:54:44;16.17;;;6.50;;
44973;SDS011;60981;50.720;11.342;2023-01-01T16:55:52;14.80;;;6.72;;
44973;SDS011;60981;50.720;11.342;2023-01-01T16:56:55;16.77;;;7.00;;
44973;SDS011;60981;50.720;11.342;2023-01-01T16:57:57;16.00;;;6.90;;
44973;SDS011;60981;50.720;11.342;2023-01-01T16:59:23;17.85;;;7.38;;
44973;SDS011;60981;50.720;11.342;2023-01-01T17:00:28;14.93;;;7.40;;
44973;SDS011;60981;50.720;11.342;2023-01-01T17:01:31;14.18;;;7.03;;
44973;SDS011;60981;50.720;11.342;2023-01-01T17:02:36;15.77;;;7.32;;
44973;SDS011;60981;50.720;11.342;2023-01-01T17:03:40;15.70;;;8.23;;
44973;SDS011;60981;50.720;11.342;2023-01-01T17:04:42;19.15;;;9.70;;
44973;SDS011;60981;50.720;11.342;2023-01-01T17:05:47;17.45;;;9.23;;
44973;SDS011;60981;50.720;11.342;2023-01-01T17:06:49;16.52;;;9.82;;
44973;SDS011;60981;50.720;11.342;2023-01-01T17:07:53;16.60;;;9.32;;
44973;SDS011;60981;50.720;11.342;2023-01-01T17:08:54;17.30;;;9.07;;
44973;SDS011;60981;50.720;11.342;2023-01-01T17:09:58;15.90;;;9.18;;
44973;SDS011;60981;50.720;11.342;2023-01-01T17:11:04;14.02;;;6.95;;
44973;SDS011;60981;50.720;11.342;2023-01-01T17:12:11;13.40;;;6.07;;
44973;SDS011;60981;50.720;11.342;2023-01-01T17:13:16;13.02;;;5.80;;
44973;SDS011;60981;50.720;11.342;2023-01-01T17:14:20;12.57;;;5.90;;
44973;SDS011;60981;50.720;11.342;2023-01-01T17:15:24;12.33;;;6.43;;
44973;SDS011;60981;50.720;11.342;2023-01-01T17:16:27;12.38;;;5.93;;
44973;SDS011;60981;50.720;11.342;2023-01-01T17:17:38;11.60;;;5.60;;
44973;SDS011;60981;50.720;11.342;2023-01-01T17:18:40;10.70;;;5.90;;
44973;SDS011;60981;50.720;11.342;2023-01-01T17:20:05;11.82;;;5.90;;
44973;SDS011;60981;50.720;11.342;2023-01-01T17:21:10;11.88;;;5.22;;
44973;SDS011;60981;50.720;11.342;2023-01-01T17:22:12;14.82;;;6.25;;
44973;SDS011;60981;50.720;11.342;2023-01-01T17:23:15;12.60;;;5.55;;
44973;SDS011;60981;50.720;11.342;2023-01-01T17:24:18;14.82;;;5.88;;
44973;SDS011;60981;50.720;11.342;2023-01-01T17:25:24;12.45;;;6.07;;
44973;SDS011;60981;50.720;11.342;2023-01-01T17:26:26;12.30;;;6.15;;
44973;SDS011;60981;50.720;11.342;2023-01-01T17:27:29;11.90;;;6.10;;
44973;SDS011;60981;50.720;11.342;2023-01-01T17:28:31;14.48;;;6.53;;
44973;SDS011;60981;50.720;11.342;2023-01-01T17:29:34;13.10;;;6.97;;